Time;durP1;ratioP1;P1;durP2;ratioP2;P2;SDS_P1;SDS_P2;PMS_P1;PMS_P2;Temp;Humidity;BMP_temperature;BMP_pressure;BME280_temperature;BME280_humidity;BME280_pressure;Samples;Min_cycle;Max_cycle;Signal;HPM_P1;HPM_P2
2023/03/21 00:01:33;;;;;;;0.10;0.10;;;10.00;99.90;;;;;;4973033;28;20222;-61
2023/03/21 00:03:58;;;;;;;0.00;0.00;;;10.00;99.90;;;;;;4972809;28;20528;-60
2023/03/21 00:06:24;;;;;;;0.00;0.00;;;10.00;99.90;;;;;;4972981;28;20168;-59
2023/03/21 00:08:50;;;;;;;0.05;0.05;;;10.00;99.90;;;;;;4972487;28;20547;-58
2023/03/21 00:11:15;;;;;;;0.00;0.00;;;10.00;99.90;;;;;;4968126;28;20191;-58
2023/03/21 00:13:42;;;;;;;0.00;0.00;;;9.90;99.90;;;;;;4972420;28;20180;-59
2023/03/21 00:16:16;;;;;;;0.00;0.00;;;9.90;99.90;;;;;;4971907;28;20191;-58
2023/03/21 00:18:47;;;;;;;0.00;0.00;;;9.90;99.90;;;;;;4971954;28;20258;-58
2023/03/21 00:21:16;;;;;;;0.00;0.00;;;9.90;99.90;;;;;;4972265;28;20211;-58
2023/03/21 00:23:42;;;;;;;0.10;0.10;;;9.90;99.90;;;;;;4972405;28;20662;-58
2023/03/21 00:26:09;;;;;;;0.00;0.00;;;9.90;99.90;;;;;;4956870;28;20593;-58
2023/03/21 00:28:41;;;;;;;0.00;0.00;;;9.90;99.90;;;;;;4952962;28;20189;-58
2023/03/21 00:31:08;;;;;;;0.00;0.00;;;9.90;99.90;;;;;;4953255;28;20211;-58
2023/03/21 00:33:34;;;;;;;0.00;0.00;;;9.80;99.90;;;;;;4937837;28;20189;-58
2023/03/21 00:36:00;;;;;;;0.10;0.10;;;9.80;99.90;;;;;;4971516;28;20176;-58
2023/03/21 00:38:26;;;;;;;0.00;0.00;;;9.80;99.90;;;;;;4971686;28;20262;-58
2023/03/21 00:40:52;;;;;;;0.00;0.00;;;9.80;99.90;;;;;;4971217;28;20215;-58
2023/03/21 00:43:22;;;;;;;0.00;0.00;;;9.80;99.90;;;;;;4976568;28;20176;-58
2023/03/21 00:45:49;;;;;;;0.00;0.00;;;9.80;99.90;;;;;;4971485;28;20179;-59
2023/03/21 00:48:15;;;;;;;0.00;0.00;;;9.80;99.90;;;;;;4971759;28;20265;-58
2023/03/21 00:50:44;;;;;;;0.00;0.00;;;9.80;99.90;;;;;;4971923;28;20276;-58
2023/03/21 00:53:10;;;;;;;0.00;0.00;;;9.80;99.90;;;;;;4971461;28;20196;-58
2023/03/21 00:55:37;;;;;;;0.00;0.00;;;9.80;99.90;;;;;;4971773;28;20188;-58
2023/03/21 00:58:03;;;;;;;0.10;0.10;;;9.80;99.90;;;;;;4971323;28;20255;-58
2023/03/21 01:00:29;;;;;;;0.00;0.00;;;9.80;99.90;;;;;;4971502;28;20208;-58
2023/03/21 01:02:55;;;;;;;0.00;0.00;;;9.80;99.90;;;;;;4971507;28;20287;-58
2023/03/21 01:08:11;;;;;;;0.00;0.00;;;9.80;99.90;;;;;;4972282;28;20214;-58
2023/03/21 01:10:41;;;;;;;0.00;0.00;;;9.70;99.90;;;;;;4962805;28;20184;-59
2023/03/21 01:13:08;;;;;;;0.00;0.00;;;9.70;99.90;;;;;;4976094;28;20180;-59
2023/03/21 01:15:34;;;;;;;0.00;0.00;;;9.70;99.90;;;;;;4976014;28;20176;-58
2023/03/21 01:18:00;;;;;;;0.08;0.08;;;9.70;99.90;;;;;;4975433;28;20578;-58
2023/03/21 01:20:26;;;;;;;0.00;0.00;;;9.70;99.90;;;;;;4975814;28;20219;-58
2023/03/21 01:22:51;;;;;;;0.00;0.00;;;9.70;99.90;;;;;;4975776;28;20179;-58
2023/03/21 01:25:17;;;;;;;0.00;0.00;;;9.70;99.90;;;;;;4975732;28;20495;-58
2023/03/21 01:27:43;;;;;;;0.00;0.00;;;9.70;99.90;;;;;;4975847;28;20701;-58
2023/03/21 01:30:09;;;;;;;0.00;0.00;;;9.70;99.90;;;;;;4975670;28;20666;-58
2023/03/21 01:32:35;;;;;;;0.00;0.00;;;9.70;99.90;;;;;;4975788;28;20246;-58
2023/03/21 01:35:00;;;;;;;0.00;0.00;;;9.70;99.90;;;;;;4975692;28;20180;-58
2023/03/21 01:37:26;;;;;;;0.08;0.08;;;9.70;99.90;;;;;;4975709;28;20180;-58
2023/03/21 01:39:51;;;;;;;0.00;0.00;;;9.70;99.90;;;;;;4975594;28;20219;-58
2023/03/21 01:42:17;;;;;;;0.00;0.00;;;9.70;99.90;;;;;;4975256;28;20188;-58
2023/03/21 01:44:57;;;;;;;0.00;0.00;;;9.70;99.90;;;;;;4982982;28;20176;-58
2023/03/21 01:47:23;;;;;;;0.00;0.00;;;9.70;99.90;;;;;;4973260;28;20191;-58
2023/03/21 01:49:52;;;;;;;0.00;0.00;;;9.70;99.90;;;;;;4974720;28;20535;-58
2023/03/21 01:52:22;;;;;;;0.00;0.00;;;9.70;99.90;;;;;;4974809;28;20182;-58
2023/03/21 01:54:49;;;;;;;0.00;0.00;;;9.70;99.90;;;;;;4975430;28;20188;-58
2023/03/21 01:57:28;;;;;;;0.08;0.08;;;9.70;99.90;;;;;;4974532;28;20186;-58
2023/03/21 01:59:54;;;;;;;0.00;0.00;;;9.70;99.90;;;;;;4983636;28;20215;-58
2023/03/21 02:02:30;;;;;;;0.00;0.00;;;9.70;99.90;;;;;;4974806;28;20267;-58
2023/03/21 02:04:57;;;;;;;0.00;0.00;;;9.70;99.90;;;;;;4974687;28;20265;-58
2023/03/21 02:07:29;;;;;;;0.00;0.00;;;9.70;99.90;;;;;;4979065;28;20184;-58
2023/03/21 02:09:56;;;;;;;0.00;0.00;;;9.70;99.90;;;;;;4974962;28;20202;-58
2023/03/21 02:12:22;;;;;;;0.00;0.00;;;9.70;99.90;;;;;;4962532;28;20267;-58
2023/03/21 02:14:48;;;;;;;0.10;0.10;;;9.70;99.90;;;;;;4985529;28;20187;-58
2023/03/21 02:17:29;;;;;;;0.00;0.00;;;9.70;99.90;;;;;;4973692;28;20534;-58
2023/03/21 02:20:10;;;;;;;0.10;0.10;;;9.60;99.90;;;;;;4974672;28;20219;-58
2023/03/21 02:23:11;;;;;;;0.00;0.00;;;9.60;99.90;;;;;;4990351;28;20180;-58
2023/03/21 02:25:52;;;;;;;0.15;0.15;;;9.60;99.90;;;;;;4980673;28;20198;-58
2023/03/21 02:28:22;;;;;;;0.00;0.00;;;9.60;99.90;;;;;;4974419;28;20216;-58
2023/03/21 02:31:16;;;;;;;0.00;0.00;;;9.60;99.90;;;;;;4974468;28;20185;-58
2023/03/21 02:34:40;;;;;;;0.00;0.00;;;9.60;99.90;;;;;;4981909;28;20184;-58
2023/03/21 02:37:17;;;;;;;0.05;0.05;;;9.60;99.90;;;;;;4877063;29;20207;-58
2023/03/21 02:39:55;;;;;;;0.00;0.00;;;9.60;99.90;;;;;;4892881;29;20182;-58
2023/03/21 02:42:33;;;;;;;0.00;0.00;;;9.60;99.90;;;;;;4944833;28;20191;-58
2023/03/21 02:45:17;;;;;;;0.00;0.00;;;9.50;99.90;;;;;;4991597;28;20175;-58
2023/03/21 02:47:51;;;;;;;0.00;0.00;;;9.50;99.90;;;;;;4973996;28;20191;-58
2023/03/21 02:50:25;;;;;;;0.00;0.00;;;9.50;99.90;;;;;;4974035;28;20192;-58
2023/03/21 02:52:52;;;;;;;0.00;0.00;;;9.50;99.90;;;;;;4973933;28;20185;-58
2023/03/21 02:55:30;;;;;;;0.10;0.10;;;9.50;99.90;;;;;;4956657;28;20211;-58
2023/03/21 02:57:57;;;;;;;0.13;0.13;;;9.50;99.90;;;;;;4973667;28;20198;-58
2023/03/21 03:00:27;;;;;;;0.00;0.00;;;9.50;99.90;;;;;;4973714;28;20216;-58
2023/03/21 03:02:54;;;;;;;0.00;0.00;;;9.50;99.90;;;;;;4973522;28;20184;-58
2023/03/21 03:05:22;;;;;;;0.00;0.00;;;9.50;99.90;;;;;;4974016;28;20247;-58
2023/03/21 03:08:13;;;;;;;0.00;0.00;;;9.50;99.90;;;;;;4956824;28;20634;-58
2023/03/21 03:11:04;;;;;;;0.00;0.00;;;9.50;99.90;;;;;;4982796;28;20184;-58
2023/03/21 03:14:02;;;;;;;0.00;0.00;;;9.50;99.90;;;;;;4972640;28;20755;-59
2023/03/21 03:17:07;;;;;;;0.15;0.15;;;9.50;99.90;;;;;;4973155;28;20593;-58
2023/03/21 03:19:42;;;;;;;0.40;0.40;;;9.50;99.90;;;;;;4959062;28;20196;-58
2023/03/21 03:22:22;;;;;;;0.00;0.00;;;9.50;99.90;;;;;;4973292;28;20677;-58
2023/03/21 03:25:03;;;;;;;0.00;0.00;;;9.50;99.90;;;;;;4987336;28;20207;-58
2023/03/21 03:27:35;;;;;;;0.00;0.00;;;9.50;99.90;;;;;;4974407;28;20187;-58
2023/03/21 03:30:04;;;;;;;0.00;0.00;;;9.50;99.90;;;;;;4973369;28;20180;-58
2023/03/21 03:32:56;;;;;;;0.00;0.00;;;9.50;99.90;;;;;;4982154;28;20188;-58
2023/03/21 03:35:23;;;;;;;0.00;0.00;;;9.50;99.90;;;;;;4972448;28;20188;-58
2023/03/21 03:37:55;;;;;;;0.00;0.00;;;9.50;99.90;;;;;;4973482;28;20524;-58
2023/03/21 03:40:30;;;;;;;0.00;0.00;;;9.50;99.90;;;;;;4973081;28;20231;-58
2023/03/21 03:43:03;;;;;;;1.35;0.85;;;9.50;99.90;;;;;;4973592;28;20506;-58
2023/03/21 03:45:33;;;;;;;0.00;0.00;;;9.40;99.90;;;;;;4973510;28;20191;-58
2023/03/21 03:48:06;;;;;;;0.55;0.30;;;9.40;99.90;;;;;;4972860;28;20188;-59
2023/03/21 03:50:41;;;;;;;0.00;0.00;;;9.50;99.90;;;;;;4973185;28;20184;-58
2023/03/21 03:53:28;;;;;;;0.10;0.10;;;9.50;99.90;;;;;;4973080;28;20296;-58
2023/03/21 03:55:55;;;;;;;0.00;0.00;;;9.50;99.90;;;;;;4972625;28;20188;-59
2023/03/21 03:58:23;;;;;;;0.00;0.00;;;9.50;99.90;;;;;;4972717;28;20584;-59
2023/03/21 04:00:49;;;;;;;0.45;0.45;;;9.50;99.90;;;;;;4972865;28;20223;-59
2023/03/21 04:03:15;;;;;;;0.00;0.00;;;9.40;99.90;;;;;;4972647;28;20187;-59
2023/03/21 04:05:45;;;;;;;0.00;0.00;;;9.40;99.90;;;;;;4972773;28;20267;-59
2023/03/21 04:08:11;;;;;;;0.00;0.00;;;9.40;99.90;;;;;;4972929;28;20203;-59
2023/03/21 04:10:36;;;;;;;0.00;0.00;;;9.50;99.90;;;;;;4972711;28;20239;-59
2023/03/21 04:13:02;;;;;;;0.00;0.00;;;9.50;99.90;;;;;;4972823;28;20173;-59
2023/03/21 04:15:27;;;;;;;0.00;0.00;;;9.50;99.90;;;;;;4972655;28;20184;-59
2023/03/21 04:17:53;;;;;;;0.03;0.03;;;9.50;99.90;;;;;;4972784;28;20227;-59
2023/03/21 04:20:18;;;;;;;0.00;0.00;;;9.50;99.90;;;;;;4980400;28;20222;-59
2023/03/21 04:22:45;;;;;;;0.10;0.10;;;9.50;99.90;;;;;;4991149;28;20199;-58
2023/03/21 04:25:12;;;;;;;0.00;0.00;;;9.50;99.90;;;;;;4971475;28;20200;-58
2023/03/21 04:27:37;;;;;;;0.00;0.00;;;9.50;99.90;;;;;;4970807;28;20597;-58
2023/03/21 04:30:04;;;;;;;0.00;0.00;;;9.50;99.90;;;;;;4971993;28;20275;-59
2023/03/21 04:32:32;;;;;;;0.00;0.00;;;9.60;99.90;;;;;;4967930;28;20187;-58
2023/03/21 04:34:58;;;;;;;0.00;0.00;;;9.60;99.90;;;;;;4980008;28;20591;-58
2023/03/21 04:37:24;;;;;;;4.38;1.20;;;9.60;99.90;;;;;;4971797;28;20188;-58
2023/03/21 04:39:50;;;;;;;0.05;0.05;;;9.60;99.90;;;;;;4969472;28;20193;-59
2023/03/21 04:42:17;;;;;;;0.00;0.00;;;9.60;99.90;;;;;;4971866;28;20184;-59
2023/03/21 04:44:44;;;;;;;0.00;0.00;;;9.50;99.90;;;;;;4974430;28;20176;-61
2023/03/21 04:47:12;;;;;;;0.00;0.00;;;9.50;99.90;;;;;;4971730;28;20284;-58
2023/03/21 04:49:38;;;;;;;0.00;0.00;;;9.50;99.90;;;;;;4967292;28;20185;-60
2023/03/21 04:52:04;;;;;;;0.43;0.43;;;9.50;99.90;;;;;;4971470;28;20267;-58
2023/03/21 04:54:31;;;;;;;0.00;0.00;;;9.50;99.90;;;;;;4970044;28;20180;-64
2023/03/21 04:56:57;;;;;;;0.00;0.00;;;9.50;99.90;;;;;;4973784;28;20188;-63
2023/03/21 04:59:22;;;;;;;0.00;0.00;;;9.50;99.90;;;;;;4971902;28;20722;-65
2023/03/21 05:01:48;;;;;;;0.00;0.00;;;9.40;99.90;;;;;;4976780;28;20212;-58
2023/03/21 05:04:15;;;;;;;0.00;0.00;;;9.40;99.90;;;;;;4970933;28;20188;-59
2023/03/21 05:06:41;;;;;;;0.47;0.32;;;9.40;99.90;;;;;;4970847;28;20203;-59
2023/03/21 05:09:07;;;;;;;0.00;0.00;;;9.40;99.90;;;;;;4970700;28;20187;-59
2023/03/21 05:11:36;;;;;;;0.00;0.00;;;9.30;99.90;;;;;;4966179;28;20664;-59
2023/03/21 05:14:06;;;;;;;0.30;0.30;;;9.30;99.90;;;;;;4971694;28;20300;-59
2023/03/21 05:16:33;;;;;;;0.00;0.00;;;9.30;99.90;;;;;;4971688;28;20639;-59
2023/03/21 05:19:03;;;;;;;0.00;0.00;;;9.30;99.90;;;;;;4971071;28;20247;-59
2023/03/21 05:21:40;;;;;;;0.65;0.20;;;9.30;99.90;;;;;;4971717;28;20228;-59
2023/03/21 05:24:12;;;;;;;0.52;0.52;;;9.30;99.90;;;;;;4971314;28;20535;-59
2023/03/21 05:26:38;;;;;;;0.55;0.50;;;9.30;99.90;;;;;;4971906;28;20207;-59
2023/03/21 05:29:04;;;;;;;0.00;0.00;;;9.30;99.90;;;;;;4971562;28;20213;-59
2023/03/21 05:31:29;;;;;;;0.15;0.15;;;9.30;99.90;;;;;;4971858;28;20177;-59
2023/03/21 05:33:55;;;;;;;0.30;0.30;;;9.30;99.90;;;;;;4971925;28;20229;-59
2023/03/21 05:36:20;;;;;;;0.00;0.00;;;9.30;99.90;;;;;;4971905;28;20647;-59
2023/03/21 05:38:46;;;;;;;0.00;0.00;;;9.20;99.90;;;;;;4971955;28;20231;-59
2023/03/21 05:41:16;;;;;;;0.00;0.00;;;9.20;99.90;;;;;;4971800;28;20691;-59
2023/03/21 05:43:41;;;;;;;0.00;0.00;;;9.20;99.90;;;;;;4979670;28;20689;-59
2023/03/21 05:46:07;;;;;;;0.30;0.30;;;9.20;99.90;;;;;;4991017;28;20187;-59
2023/03/21 05:48:33;;;;;;;0.00;0.00;;;9.20;99.90;;;;;;4990674;28;20705;-59
2023/03/21 05:51:00;;;;;;;0.00;0.00;;;9.20;99.90;;;;;;4990906;28;20279;-59
2023/03/21 05:53:26;;;;;;;0.00;0.00;;;9.10;99.90;;;;;;4990766;28;20615;-59
2023/03/21 05:55:51;;;;;;;0.00;0.00;;;9.10;99.90;;;;;;4990803;28;20643;-59
2023/03/21 05:58:17;;;;;;;0.00;0.00;;;9.10;99.90;;;;;;4993166;28;20185;-59
2023/03/21 06:00:43;;;;;;;0.00;0.00;;;9.10;99.90;;;;;;4994325;28;20353;-59
2023/03/21 06:03:08;;;;;;;0.00;0.00;;;9.10;99.90;;;;;;4994336;28;20299;-59
2023/03/21 06:05:34;;;;;;;0.00;0.00;;;9.10;99.90;;;;;;4994340;28;20203;-59
2023/03/21 06:08:00;;;;;;;0.00;0.00;;;9.10;99.90;;;;;;4977191;28;20186;-59
2023/03/21 06:10:25;;;;;;;0.03;0.03;;;9.10;99.90;;;;;;4994289;28;20179;-59
2023/03/21 06:12:51;;;;;;;0.00;0.00;;;9.10;99.90;;;;;;4974886;28;20195;-59
2023/03/21 06:15:18;;;;;;;0.10;0.10;;;9.10;99.90;;;;;;4974649;28;20180;-59
2023/03/21 06:17:43;;;;;;;0.00;0.00;;;9.10;99.90;;;;;;4974437;28;20230;-59
2023/03/21 06:20:10;;;;;;;0.00;0.00;;;9.10;99.90;;;;;;4974713;28;20208;-59
2023/03/21 06:22:35;;;;;;;0.10;0.10;;;9.20;99.90;;;;;;4974736;28;20271;-59
2023/03/21 06:25:02;;;;;;;0.00;0.00;;;9.20;99.90;;;;;;4957441;28;20315;-59
2023/03/21 06:27:28;;;;;;;0.00;0.00;;;9.20;99.90;;;;;;4974532;28;20195;-59
2023/03/21 06:29:53;;;;;;;0.00;0.00;;;9.30;99.90;;;;;;4957215;28;20726;-59
2023/03/21 06:32:19;;;;;;;0.00;0.00;;;9.40;99.90;;;;;;4974461;28;20187;-59
2023/03/21 06:34:44;;;;;;;0.00;0.00;;;9.60;99.90;;;;;;4974557;28;20270;-59
2023/03/21 06:37:10;;;;;;;0.00;0.00;;;9.70;99.90;;;;;;4974449;28;20186;-58
2023/03/21 06:39:35;;;;;;;0.10;0.10;;;9.90;99.90;;;;;;4974360;28;20259;-59
2023/03/21 06:42:01;;;;;;;0.00;0.00;;;10.10;99.90;;;;;;4974316;28;20682;-59
2023/03/21 06:44:27;;;;;;;0.00;0.00;;;10.20;99.90;;;;;;4988237;28;20271;-59
2023/03/21 06:46:53;;;;;;;0.00;0.00;;;10.30;99.90;;;;;;4993594;28;20200;-59
2023/03/21 06:49:19;;;;;;;0.00;0.00;;;10.60;99.90;;;;;;4993685;28;20259;-59
2023/03/21 06:51:45;;;;;;;0.00;0.00;;;11.00;99.90;;;;;;4993681;28;20633;-59
2023/03/21 06:54:12;;;;;;;0.00;0.00;;;11.50;99.90;;;;;;4993512;28;20722;-59
2023/03/21 06:56:38;;;;;;;0.00;0.00;;;11.70;99.90;;;;;;4993572;28;20522;-59
2023/03/21 06:59:04;;;;;;;0.00;0.00;;;12.10;99.90;;;;;;4993361;28;20183;-59
2023/03/21 07:01:29;;;;;;;0.00;0.00;;;12.50;99.90;;;;;;4993346;28;20314;-59
2023/03/21 07:03:57;;;;;;;0.00;0.00;;;12.70;99.90;;;;;;4993360;28;20694;-59
2023/03/21 07:06:25;;;;;;;0.00;0.00;;;12.90;99.90;;;;;;4993270;28;20489;-59
2023/03/21 07:08:51;;;;;;;0.00;0.00;;;13.00;99.90;;;;;;4992120;28;20163;-59
2023/03/21 07:11:17;;;;;;;0.00;0.00;;;13.20;99.90;;;;;;4986311;28;20528;-59
2023/03/21 07:13:43;;;;;;;0.00;0.00;;;13.40;99.90;;;;;;4973911;28;20180;-59
2023/03/21 07:16:09;;;;;;;0.00;0.00;;;13.80;99.90;;;;;;4973637;28;20647;-59
2023/03/21 07:18:35;;;;;;;0.00;0.00;;;14.40;99.90;;;;;;4973405;28;20223;-59
2023/03/21 07:21:01;;;;;;;0.03;0.03;;;15.20;98.70;;;;;;4973618;28;20219;-59
2023/03/21 07:23:27;;;;;;;0.00;0.00;;;15.90;97.00;;;;;;4973645;28;20176;-59
2023/03/21 07:25:53;;;;;;;0.00;0.00;;;16.10;95.30;;;;;;4973450;28;20194;-59
2023/03/21 07:28:19;;;;;;;0.00;0.00;;;16.00;94.20;;;;;;4973426;28;20267;-59
2023/03/21 07:30:51;;;;;;;0.00;0.00;;;15.90;93.90;;;;;;4973717;28;20651;-59
2023/03/21 07:33:16;;;;;;;0.00;0.00;;;15.80;94.00;;;;;;4973736;28;20706;-59
2023/03/21 07:35:41;;;;;;;0.00;0.00;;;15.60;94.00;;;;;;4973759;28;20284;-59
2023/03/21 07:38:07;;;;;;;0.00;0.00;;;15.50;93.70;;;;;;4972445;28;20180;-59
2023/03/21 07:40:32;;;;;;;0.00;0.00;;;15.50;93.90;;;;;;4973493;28;20208;-59
2023/03/21 07:42:58;;;;;;;0.00;0.00;;;15.50;93.60;;;;;;4975543;28;20647;-59
2023/03/21 07:45:26;;;;;;;0.00;0.00;;;15.50;93.50;;;;;;4993038;28;20168;-59
2023/03/21 07:47:52;;;;;;;0.00;0.00;;;15.70;93.20;;;;;;4992806;28;20186;-59
2023/03/21 07:50:18;;;;;;;0.00;0.00;;;16.00;92.40;;;;;;4992804;28;20230;-59
2023/03/21 07:52:43;;;;;;;0.00;0.00;;;16.40;91.80;;;;;;4992882;28;20167;-60
2023/03/21 07:55:09;;;;;;;0.00;0.00;;;16.80;90.90;;;;;;4992626;28;20250;-59
2023/03/21 07:57:35;;;;;;;0.00;0.00;;;17.20;90.00;;;;;;4992793;28;20172;-59
2023/03/21 08:00:02;;;;;;;0.00;0.00;;;17.80;87.10;;;;;;4992537;28;20978;-60
2023/03/21 08:02:28;;;;;;;0.00;0.00;;;18.10;80.90;;;;;;4992697;28;20183;-59
2023/03/21 08:04:53;;;;;;;0.00;0.00;;;18.40;79.60;;;;;;4992512;28;20176;-59
2023/03/21 08:07:19;;;;;;;0.00;0.00;;;18.70;77.80;;;;;;4992455;28;20184;-59
2023/03/21 08:09:44;;;;;;;0.00;0.00;;;19.00;75.10;;;;;;4992511;28;20564;-60
2023/03/21 08:12:10;;;;;;;0.00;0.00;;;19.50;73.80;;;;;;4978449;28;20184;-59
2023/03/21 08:14:36;;;;;;;0.00;0.00;;;19.50;70.00;;;;;;4973047;28;20276;-59
2023/03/21 08:17:03;;;;;;;0.00;0.00;;;19.50;68.50;;;;;;4972725;28;20187;-60
2023/03/21 08:19:29;;;;;;;0.00;0.00;;;19.50;67.60;;;;;;4972435;28;20651;-59
2023/03/21 08:21:58;;;;;;;0.10;0.10;;;19.60;67.90;;;;;;4972664;28;20228;-59
2023/03/21 08:24:24;;;;;;;0.00;0.00;;;19.30;67.00;;;;;;4972952;28;20184;-59
2023/03/21 08:26:50;;;;;;;0.00;0.00;;;19.30;68.30;;;;;;4972879;28;20325;-59
2023/03/21 08:29:16;;;;;;;0.00;0.00;;;19.50;67.80;;;;;;4972789;28;20746;-59
2023/03/21 08:31:41;;;;;;;0.00;0.00;;;19.90;67.50;;;;;;4972720;28;20173;-59
2023/03/21 08:34:07;;;;;;;0.00;0.00;;;20.10;66.30;;;;;;4972697;28;20188;-60
2023/03/21 08:36:35;;;;;;;0.00;0.00;;;20.30;64.60;;;;;;4972609;28;20184;-59
2023/03/21 08:39:04;;;;;;;0.00;0.00;;;20.70;65.00;;;;;;4972607;28;20176;-59
2023/03/21 08:41:34;;;;;;;0.00;0.00;;;21.00;62.60;;;;;;4972507;28;20221;-60
2023/03/21 08:44:00;;;;;;;0.00;0.00;;;21.30;60.40;;;;;;4982871;28;20207;-60
2023/03/21 08:46:26;;;;;;;0.00;0.00;;;21.40;59.40;;;;;;4991955;28;20249;-59
2023/03/21 08:48:53;;;;;;;0.03;0.03;;;21.50;58.90;;;;;;4991812;28;20211;-59
2023/03/21 08:51:19;;;;;;;0.00;0.00;;;21.40;58.70;;;;;;4991788;28;20626;-59
2023/03/21 08:53:44;;;;;;;0.00;0.00;;;21.30;58.90;;;;;;4992017;28;20203;-59
2023/03/21 08:56:10;;;;;;;0.00;0.00;;;21.20;58.30;;;;;;4991675;28;20258;-60
2023/03/21 08:58:36;;;;;;;0.00;0.00;;;21.40;59.20;;;;;;4991754;28;20304;-59
2023/03/21 09:01:03;;;;;;;0.00;0.00;;;21.40;58.50;;;;;;4991595;28;20246;-59
2023/03/21 09:03:29;;;;;;;0.00;0.00;;;21.20;58.10;;;;;;4991666;28;20254;-59
2023/03/21 09:05:55;;;;;;;0.00;0.00;;;20.90;57.00;;;;;;4991552;28;20263;-59
2023/03/21 09:08:22;;;;;;;0.00;0.00;;;20.60;57.90;;;;;;4991785;28;20183;-59
2023/03/21 09:10:51;;;;;;;0.00;0.00;;;20.30;58.80;;;;;;4988816;28;20184;-59
2023/03/21 09:13:17;;;;;;;0.03;0.03;;;20.20;58.10;;;;;;4972094;28;20263;-59
2023/03/21 09:15:44;;;;;;;0.00;0.00;;;20.20;58.90;;;;;;4972098;28;20288;-59
2023/03/21 09:18:13;;;;;;;0.00;0.00;;;20.10;59.50;;;;;;4971623;28;20227;-59
2023/03/21 09:20:39;;;;;;;0.00;0.00;;;20.00;58.80;;;;;;4971998;28;20682;-59
2023/03/21 09:23:06;;;;;;;0.00;0.00;;;19.90;58.60;;;;;;4971951;28;20184;-59
2023/03/21 09:25:32;;;;;;;0.00;0.00;;;20.00;58.80;;;;;;4972027;28;20176;-59
2023/03/21 09:28:04;;;;;;;0.00;0.00;;;19.80;59.20;;;;;;4971937;28;20183;-59
2023/03/21 09:30:30;;;;;;;0.00;0.00;;;19.80;59.10;;;;;;4972082;28;20757;-59
2023/03/21 09:32:57;;;;;;;0.00;0.00;;;19.70;59.00;;;;;;4973966;28;20272;-59
2023/03/21 09:35:23;;;;;;;0.00;0.00;;;19.50;59.70;;;;;;4975711;28;20179;-59
2023/03/21 09:37:49;;;;;;;0.00;0.00;;;19.50;59.90;;;;;;4975868;28;20180;-59
2023/03/21 09:40:18;;;;;;;0.00;0.00;;;19.40;60.30;;;;;;4975519;28;20566;-59
2023/03/21 09:43:01;;;;;;;0.00;0.00;;;19.30;60.40;;;;;;4975815;28;20271;-60
2023/03/21 09:45:38;;;;;;;0.00;0.00;;;19.40;59.70;;;;;;4995243;28;20179;-59
2023/03/21 09:48:06;;;;;;;0.00;0.00;;;19.40;60.10;;;;;;4995056;28;20262;-59
2023/03/21 09:50:36;;;;;;;0.00;0.00;;;19.40;60.00;;;;;;4994992;28;20183;-59
2023/03/21 09:53:15;;;;;;;0.00;0.00;;;19.40;62.20;;;;;;4994900;28;20188;-57
2023/03/21 09:55:41;;;;;;;0.00;0.00;;;19.30;61.20;;;;;;4994972;28;20222;-57
2023/03/21 09:58:24;;;;;;;0.00;0.00;;;19.10;60.90;;;;;;4994833;28;20175;-57
2023/03/21 10:00:56;;;;;;;0.00;0.00;;;19.00;61.30;;;;;;4994861;28;20199;-58
2023/03/21 10:03:25;;;;;;;0.00;0.00;;;18.90;61.10;;;;;;4994745;28;20268;-57
2023/03/21 10:05:57;;;;;;;0.00;0.00;;;19.00;60.90;;;;;;4994765;28;20160;-57
2023/03/21 10:08:29;;;;;;;0.00;0.00;;;19.00;61.30;;;;;;4994695;28;20175;-57
2023/03/21 10:11:05;;;;;;;0.00;0.00;;;19.00;61.50;;;;;;4990645;28;20268;-58
2023/03/21 10:13:45;;;;;;;0.03;0.03;;;19.10;61.50;;;;;;4975422;28;20198;-59
2023/03/21 10:16:16;;;;;;;0.00;0.00;;;19.00;62.10;;;;;;4975017;28;20186;-60
2023/03/21 10:18:43;;;;;;;0.00;0.00;;;18.90;62.40;;;;;;4974857;28;20239;-60
2023/03/21 10:21:24;;;;;;;0.00;0.00;;;18.90;62.80;;;;;;4974918;28;20271;-60
2023/03/21 10:23:52;;;;;;;0.00;0.00;;;18.60;63.40;;;;;;4975133;28;20175;-60
2023/03/21 10:26:20;;;;;;;0.15;0.10;;;18.40;64.30;;;;;;4974907;28;20208;-60
2023/03/21 10:28:47;;;;;;;0.00;0.00;;;17.90;64.50;;;;;;4974942;28;20231;-60
2023/03/21 10:31:18;;;;;;;0.00;0.00;;;17.50;65.60;;;;;;4974678;28;20191;-60
2023/03/21 10:33:46;;;;;;;0.00;0.00;;;17.40;66.80;;;;;;4974976;28;20188;-60
2023/03/21 10:36:16;;;;;;;0.00;0.00;;;17.20;66.50;;;;;;4974867;28;20275;-60
2023/03/21 10:38:49;;;;;;;0.00;0.00;;;17.20;67.60;;;;;;4974848;28;20176;-60
2023/03/21 10:41:15;;;;;;;0.00;0.00;;;17.20;68.00;;;;;;4974477;28;20219;-60
2023/03/21 10:43:43;;;;;;;0.10;0.10;;;17.20;67.70;;;;;;4982109;28;20172;-60
2023/03/21 10:46:19;;;;;;;0.00;0.00;;;17.30;68.10;;;;;;4994068;28;20191;-60
2023/03/21 10:48:51;;;;;;;0.00;0.00;;;17.30;67.80;;;;;;4994121;28;20258;-59
2023/03/21 10:51:20;;;;;;;0.10;0.10;;;17.40;67.60;;;;;;4993883;28;20175;-60
2023/03/21 10:54:13;;;;;;;0.00;0.00;;;17.40;67.80;;;;;;4993972;28;20206;-60
2023/03/21 10:56:46;;;;;;;0.00;0.00;;;17.40;68.20;;;;;;4985354;28;20665;-60
2023/03/21 10:59:19;;;;;;;0.00;0.00;;;17.30;67.70;;;;;;4993759;28;20194;-60
2023/03/21 11:01:49;;;;;;;0.00;0.00;;;17.40;70.00;;;;;;4993722;28;20255;-60
2023/03/21 11:04:25;;;;;;;0.00;0.00;;;17.20;69.30;;;;;;4993526;28;20241;-60
2023/03/21 11:07:01;;;;;;;0.00;0.00;;;17.10;69.00;;;;;;4993815;28;20178;-60
2023/03/21 11:10:02;;;;;;;0.00;0.00;;;17.20;69.30;;;;;;4993577;28;20646;-60
2023/03/21 11:12:37;;;;;;;0.00;0.00;;;17.20;68.50;;;;;;4976496;28;20198;-60
2023/03/21 11:15:25;;;;;;;0.00;0.00;;;17.40;67.90;;;;;;4974016;28;20180;-60
2023/03/21 11:17:51;;;;;;;0.00;0.00;;;17.60;67.60;;;;;;4973835;28;20223;-60
2023/03/21 11:20:18;;;;;;;0.00;0.00;;;17.60;66.40;;;;;;4973740;28;20211;-60
2023/03/21 11:22:45;;;;;;;0.00;0.00;;;17.60;66.20;;;;;;4973985;28;20173;-60
2023/03/21 11:25:35;;;;;;;0.00;0.00;;;17.60;67.00;;;;;;4973933;28;20228;-60
2023/03/21 11:28:07;;;;;;;0.00;0.00;;;17.40;67.10;;;;;;4973792;28;20179;-60
2023/03/21 11:30:33;;;;;;;0.00;0.00;;;17.50;68.10;;;;;;4973629;28;20187;-60
2023/03/21 11:33:05;;;;;;;0.00;0.00;;;17.50;66.90;;;;;;4956478;28;20215;-60
2023/03/21 11:35:36;;;;;;;0.00;0.00;;;17.60;67.50;;;;;;4973827;28;20259;-60
2023/03/21 11:38:02;;;;;;;0.00;0.00;;;17.70;68.00;;;;;;4973604;28;20246;-60
2023/03/21 11:40:32;;;;;;;0.00;0.00;;;17.70;68.70;;;;;;4973437;28;20211;-60
2023/03/21 11:42:59;;;;;;;0.00;0.00;;;17.70;68.00;;;;;;4975610;28;20195;-60
2023/03/21 11:45:27;;;;;;;0.00;0.00;;;17.70;67.90;;;;;;4993071;28;20218;-60
2023/03/21 11:47:55;;;;;;;0.00;0.00;;;17.80;68.30;;;;;;4992796;28;20187;-60
2023/03/21 11:50:27;;;;;;;0.10;0.10;;;17.70;68.20;;;;;;4992820;28;20172;-60
2023/03/21 11:53:16;;;;;;;0.00;0.00;;;17.70;67.80;;;;;;4992728;28;20190;-60
2023/03/21 11:56:22;;;;;;;0.00;0.00;;;17.60;68.10;;;;;;4992156;28;20265;-60
2023/03/21 11:58:57;;;;;;;0.00;0.00;;;17.50;69.10;;;;;;4992780;28;20171;-60
2023/03/21 12:01:32;;;;;;;0.00;0.00;;;17.30;69.60;;;;;;4992753;28;20211;-60
2023/03/21 12:04:17;;;;;;;0.00;0.00;;;17.20;70.00;;;;;;4992698;28;20241;-60
2023/03/21 12:06:53;;;;;;;0.00;0.00;;;17.20;70.40;;;;;;4992701;28;20564;-60
2023/03/21 12:09:48;;;;;;;0.00;0.00;;;17.10;70.50;;;;;;4992683;28;20247;-60
2023/03/21 12:12:55;;;;;;;0.00;0.00;;;17.00;70.40;;;;;;4935599;28;20203;-60
2023/03/21 12:15:28;;;;;;;0.00;0.00;;;17.00;70.80;;;;;;4953788;28;20825;-60
2023/03/21 12:18:15;;;;;;;0.00;0.00;;;17.00;69.70;;;;;;4958909;28;20232;-60
2023/03/21 12:20:58;;;;;;;0.00;0.00;;;17.00;69.80;;;;;;4972878;28;20212;-60
2023/03/21 12:24:06;;;;;;;0.00;0.00;;;17.10;69.80;;;;;;4972836;28;20326;-59
2023/03/21 12:26:56;;;;;;;0.00;0.00;;;17.10;68.90;;;;;;4972813;28;20304;-58
2023/03/21 12:30:03;;;;;;;0.03;0.03;;;17.00;70.20;;;;;;4972853;28;20176;-59
2023/03/21 12:32:40;;;;;;;0.00;0.00;;;16.90;69.80;;;;;;4913144;29;20272;-59
2023/03/21 12:35:33;;;;;;;0.00;0.00;;;16.60;69.20;;;;;;4964824;28;20192;-59
2023/03/21 12:38:16;;;;;;;0.00;0.00;;;16.60;70.90;;;;;;4972660;28;20216;-59
2023/03/21 12:41:01;;;;;;;0.00;0.00;;;16.80;70.90;;;;;;4972580;28;20224;-59
2023/03/21 12:43:44;;;;;;;0.00;0.00;;;17.10;70.40;;;;;;4978293;28;20590;-59
2023/03/21 12:46:20;;;;;;;0.00;0.00;;;17.10;70.20;;;;;;4991976;28;20180;-59
2023/03/21 12:48:57;;;;;;;0.00;0.00;;;17.40;70.10;;;;;;4992095;28;20247;-60
2023/03/21 12:51:31;;;;;;;0.00;0.00;;;17.60;70.10;;;;;;4991927;28;20168;-60
2023/03/21 12:54:23;;;;;;;0.00;0.00;;;17.70;69.10;;;;;;4991840;28;20186;-60
2023/03/21 12:56:56;;;;;;;0.00;0.00;;;17.80;68.30;;;;;;4991983;28;20176;-61
2023/03/21 12:59:29;;;;;;;0.00;0.00;;;18.00;68.50;;;;;;4991878;28;20182;-60
2023/03/21 13:02:03;;;;;;;0.20;0.20;;;18.00;67.70;;;;;;4991704;28;20226;-60
2023/03/21 13:04:59;;;;;;;0.00;0.00;;;18.10;67.20;;;;;;4991841;28;20247;-60
2023/03/21 13:07:26;;;;;;;0.00;0.00;;;18.10;67.90;;;;;;4956727;28;20195;-60
2023/03/21 13:09:54;;;;;;;0.00;0.00;;;18.10;68.10;;;;;;4991656;28;20190;-60
2023/03/21 13:12:56;;;;;;;0.00;0.00;;;18.20;68.20;;;;;;4968604;28;20310;-60
2023/03/21 13:15:41;;;;;;;0.00;0.00;;;18.20;66.80;;;;;;4960057;28;20725;-60